Time;durP1;ratioP1;P1;durP2;ratioP2;P2;SDS_P1;SDS_P2;PMS_P1;PMS_P2;Temp;Humidity;BMP_temperature;BMP_pressure;BME280_temperature;BME280_humidity;BME280_pressure;Samples;Min_cycle;Max_cycle;Signal;HPM_P1;HPM_P2
2023/08/15 00:01:17;;;;;;;0.98;0.88;;;22.60;73.90;;;;;;5041648;28;20095;-63
2023/08/15 00:03:46;;;;;;;1.80;1.13;;;22.50;73.90;;;;;;5044620;28;20025;-63
2023/08/15 00:06:12;;;;;;;1.20;0.80;;;22.50;73.90;;;;;;5044936;28;20048;-63
2023/08/15 00:08:38;;;;;;;2.38;0.70;;;22.50;74.00;;;;;;5046068;28;21836;-63
2023/08/15 00:11:04;;;;;;;2.78;1.23;;;22.50;74.10;;;;;;5038753;28;20025;-64
2023/08/15 00:13:29;;;;;;;0.95;0.88;;;22.50;74.10;;;;;;5050797;28;20024;-64
2023/08/15 00:15:55;;;;;;;0.93;0.90;;;22.50;74.10;;;;;;5051946;28;20056;-63
2023/08/15 00:18:21;;;;;;;1.23;0.88;;;22.50;74.20;;;;;;5053778;28;20025;-70
2023/08/15 00:20:47;;;;;;;1.52;1.02;;;22.40;74.20;;;;;;5044629;28;20420;-70
2023/08/15 00:23:13;;;;;;;0.70;0.70;;;22.40;74.20;;;;;;5045740;28;20121;-70
2023/08/15 00:25:39;;;;;;;4.40;1.05;;;22.40;74.20;;;;;;5053626;28;20112;-70
2023/08/15 00:28:05;;;;;;;1.23;1.15;;;22.40;74.30;;;;;;5052185;28;20061;-70
2023/08/15 00:30:32;;;;;;;2.08;0.95;;;22.50;74.30;;;;;;5053491;28;20040;-70
2023/08/15 00:32:58;;;;;;;1.50;1.30;;;22.40;74.40;;;;;;5048557;28;20025;-70
2023/08/15 00:35:24;;;;;;;1.80;0.98;;;22.40;74.50;;;;;;5053525;28;20029;-70
2023/08/15 00:37:49;;;;;;;2.28;0.90;;;22.40;74.70;;;;;;5056065;28;20032;-70
2023/08/15 00:40:15;;;;;;;2.08;1.38;;;22.40;74.70;;;;;;5049216;28;20039;-64
2023/08/15 00:42:41;;;;;;;2.28;0.93;;;22.40;74.80;;;;;;5040382;28;20036;-64
2023/08/15 00:45:07;;;;;;;1.10;1.00;;;22.40;74.70;;;;;;5039758;28;20476;-64
2023/08/15 00:47:33;;;;;;;1.02;0.90;;;22.40;74.80;;;;;;5043257;28;20088;-61
2023/08/15 00:50:00;;;;;;;1.15;1.05;;;22.40;74.90;;;;;;5044817;28;20475;-61
2023/08/15 00:52:27;;;;;;;0.80;0.80;;;22.40;75.00;;;;;;5048371;28;20087;-62
2023/08/15 00:54:54;;;;;;;1.08;0.90;;;22.30;75.00;;;;;;5046183;28;20032;-62
2023/08/15 00:57:20;;;;;;;2.40;1.30;;;22.40;75.00;;;;;;5037060;28;20040;-62
2023/08/15 00:59:46;;;;;;;1.23;1.13;;;22.30;75.00;;;;;;5040268;28;20033;-62
2023/08/15 01:02:12;;;;;;;0.90;0.90;;;22.30;75.30;;;;;;5054275;28;20483;-62
2023/08/15 01:04:39;;;;;;;1.20;0.80;;;22.30;75.40;;;;;;5048079;28;20503;-63
2023/08/15 01:07:04;;;;;;;2.10;1.30;;;22.30;75.50;;;;;;5046905;28;20018;-63
2023/08/15 01:09:30;;;;;;;2.70;1.48;;;22.30;75.50;;;;;;5049699;28;20403;-63
2023/08/15 01:12:17;;;;;;;1.00;0.95;;;22.30;75.60;;;;;;5052059;28;20025;-63
2023/08/15 01:15:04;;;;;;;2.75;1.20;;;22.30;75.70;;;;;;5046413;28;20159;-63
2023/08/15 01:17:57;;;;;;;0.95;0.95;;;22.30;75.80;;;;;;5054635;28;20040;-63
2023/08/15 01:20:32;;;;;;;2.83;1.80;;;22.30;76.00;;;;;;5054827;28;20029;-63
2023/08/15 01:23:01;;;;;;;1.95;1.15;;;22.20;76.10;;;;;;5053508;28;20025;-63
2023/08/15 01:25:27;;;;;;;2.70;1.52;;;22.20;76.40;;;;;;5046550;28;20025;-63
2023/08/15 01:27:53;;;;;;;1.92;1.00;;;22.20;76.40;;;;;;5048302;28;20044;-63
2023/08/15 01:30:21;;;;;;;1.55;1.17;;;22.30;76.30;;;;;;5055562;28;20032;-63
2023/08/15 01:33:09;;;;;;;2.65;1.50;;;22.30;76.30;;;;;;5048169;28;20043;-63
2023/08/15 01:35:46;;;;;;;1.42;1.20;;;22.30;76.30;;;;;;5048506;28;20551;-69
2023/08/15 01:38:38;;;;;;;1.20;1.10;;;22.30;76.40;;;;;;5051840;28;20024;-69
2023/08/15 01:41:06;;;;;;;;;;;22.30;76.40;;;;;;5043477;28;20036;-69
2023/08/15 01:43:33;;;;;;;1.63;1.02;;;22.30;76.60;;;;;;5053351;28;19920;-69
2023/08/15 01:45:59;;;;;;;2.47;1.63;;;22.30;76.70;;;;;;5045356;28;20024;-69
2023/08/15 01:48:25;;;;;;;1.77;1.48;;;22.30;76.70;;;;;;5047638;28;20032;-69
2023/08/15 01:50:50;;;;;;;1.38;1.13;;;22.30;76.60;;;;;;5051290;28;20488;-63
2023/08/15 01:53:16;;;;;;;1.35;1.10;;;22.30;76.60;;;;;;5053723;28;20110;-69
2023/08/15 01:55:42;;;;;;;3.05;1.65;;;22.30;77.20;;;;;;5049778;28;20032;-69
2023/08/15 01:58:07;;;;;;;1.88;1.20;;;22.30;76.80;;;;;;5056386;28;20102;-69
2023/08/15 02:00:34;;;;;;;1.65;1.40;;;22.20;76.90;;;;;;5050988;28;20150;-69
2023/08/15 02:02:59;;;;;;;1.90;1.75;;;22.30;77.10;;;;;;5051174;28;20115;-69
2023/08/15 02:05:25;;;;;;;1.73;1.20;;;22.30;77.20;;;;;;5048817;28;20167;-69
2023/08/15 02:07:51;;;;;;;2.78;1.67;;;22.30;77.30;;;;;;5051218;28;20387;-69
2023/08/15 02:10:16;;;;;;;3.35;1.30;;;22.30;77.30;;;;;;5051504;28;20048;-64
2023/08/15 02:12:42;;;;;;;2.50;1.38;;;22.30;77.40;;;;;;5044386;28;20629;-63
2023/08/15 02:15:08;;;;;;;3.78;1.80;;;22.30;77.40;;;;;;5049161;28;20047;-63
2023/08/15 02:17:33;;;;;;;2.25;1.40;;;22.30;77.50;;;;;;5055846;28;20053;-63
2023/08/15 02:19:59;;;;;;;3.45;2.00;;;22.30;77.70;;;;;;5048546;28;20448;-63
2023/08/15 02:22:25;;;;;;;1.33;1.23;;;22.30;78.10;;;;;;5053834;28;20044;-63
2023/08/15 02:24:50;;;;;;;1.40;1.30;;;22.30;78.10;;;;;;5059724;28;20116;-63
2023/08/15 02:27:16;;;;;;;3.90;1.92;;;22.40;78.20;;;;;;5057604;28;20076;-63
2023/08/15 02:29:42;;;;;;;3.63;1.50;;;22.40;78.20;;;;;;5049308;28;20041;-63
2023/08/15 02:32:07;;;;;;;1.95;1.27;;;22.40;78.50;;;;;;5057392;28;20498;-64
2023/08/15 02:34:33;;;;;;;3.55;1.85;;;22.50;78.40;;;;;;5051342;28;20276;-63
2023/08/15 02:36:58;;;;;;;5.53;1.70;;;22.50;78.70;;;;;;5065576;28;20082;-63
2023/08/15 02:39:24;;;;;;;3.03;1.33;;;22.50;78.50;;;;;;5053108;28;20496;-63
2023/08/15 02:41:50;;;;;;;3.22;1.77;;;22.50;78.50;;;;;;5056821;28;20268;-63
2023/08/15 02:44:15;;;;;;;3.42;1.33;;;22.50;78.40;;;;;;5051225;28;20029;-63
2023/08/15 02:46:41;;;;;;;3.30;1.65;;;22.50;78.30;;;;;;5055978;28;20033;-63
2023/08/15 02:49:07;;;;;;;4.35;1.45;;;22.50;78.10;;;;;;5049778;28;20036;-63
2023/08/15 02:51:32;;;;;;;2.97;2.20;;;22.50;78.10;;;;;;5054737;28;20029;-63
2023/08/15 02:53:58;;;;;;;1.77;1.52;;;22.40;78.00;;;;;;5048588;28;20036;-63
2023/08/15 02:56:24;;;;;;;1.58;1.48;;;22.40;78.10;;;;;;5050594;28;20044;-63
2023/08/15 02:58:50;;;;;;;5.60;1.23;;;22.40;78.00;;;;;;5051588;28;20048;-63
2023/08/15 03:01:16;;;;;;;2.83;1.40;;;22.40;77.90;;;;;;5066739;28;20040;-63
2023/08/15 03:03:41;;;;;;;1.70;1.20;;;22.40;77.80;;;;;;5050264;28;20476;-63
2023/08/15 03:06:07;;;;;;;2.08;1.38;;;22.40;77.70;;;;;;5052210;28;20462;-63
2023/08/15 03:08:33;;;;;;;2.03;1.23;;;22.40;77.60;;;;;;5046867;28;20025;-63
2023/08/15 03:10:59;;;;;;;3.53;1.77;;;22.40;77.50;;;;;;5054486;28;20108;-63
2023/08/15 03:13:24;;;;;;;1.90;1.38;;;22.40;77.50;;;;;;5052939;28;20056;-63
2023/08/15 03:15:55;;;;;;;1.50;1.13;;;22.40;77.40;;;;;;5060575;28;20036;-63
2023/08/15 03:18:21;;;;;;;5.00;1.33;;;22.40;77.30;;;;;;5059755;28;20024;-64
2023/08/15 03:20:56;;;;;;;3.53;1.75;;;22.30;77.30;;;;;;5052745;28;20391;-63
2023/08/15 03:23:22;;;;;;;1.88;1.17;;;22.30;77.20;;;;;;5050287;28;20035;-63
2023/08/15 03:26:01;;;;;;;2.65;1.27;;;22.30;77.10;;;;;;5058802;28;20110;-63
2023/08/15 03:28:27;;;;;;;1.90;1.33;;;22.30;76.90;;;;;;5044824;28;20036;-64
2023/08/15 03:30:53;;;;;;;2.35;1.25;;;22.20;76.90;;;;;;5050202;28;20045;-63
2023/08/15 03:33:19;;;;;;;2.13;1.20;;;22.20;77.50;;;;;;5046684;28;20035;-63
2023/08/15 03:35:49;;;;;;;1.38;0.95;;;22.20;76.70;;;;;;5051380;28;20250;-63
2023/08/15 03:38:16;;;;;;;1.48;1.10;;;22.20;76.70;;;;;;5057585;28;20017;-63
2023/08/15 03:40:47;;;;;;;1.42;1.20;;;22.20;76.60;;;;;;5048831;28;20036;-69
2023/08/15 03:43:13;;;;;;;2.50;1.00;;;22.10;76.10;;;;;;5050296;28;20173;-69
2023/08/15 03:45:39;;;;;;;4.93;1.90;;;22.00;75.90;;;;;;5047358;28;20373;-69
2023/08/15 03:48:06;;;;;;;2.45;1.15;;;22.00;75.70;;;;;;5060912;28;20279;-69
2023/08/15 03:50:38;;;;;;;4.18;1.15;;;21.90;75.60;;;;;;5055842;28;20048;-69
2023/08/15 03:53:04;;;;;;;2.67;1.05;;;21.90;75.30;;;;;;5052450;28;20113;-69
2023/08/15 03:55:31;;;;;;;1.23;1.13;;;21.90;75.40;;;;;;5048676;28;20108;-69
2023/08/15 03:57:57;;;;;;;3.63;1.50;;;21.90;75.00;;;;;;5050262;28;20459;-63
2023/08/15 04:00:24;;;;;;;1.17;1.02;;;21.90;75.00;;;;;;5047419;28;20032;-69
2023/08/15 04:02:50;;;;;;;1.33;1.10;;;21.90;75.00;;;;;;5051931;28;20504;-69
2023/08/15 04:05:17;;;;;;;3.25;1.73;;;21.90;75.10;;;;;;5047747;28;20031;-69
2023/08/15 04:07:43;;;;;;;1.10;0.95;;;21.80;74.90;;;;;;5055037;28;20036;-69
2023/08/15 04:10:11;;;;;;;1.65;1.10;;;21.80;74.70;;;;;;5053708;28;20029;-69
2023/08/15 04:12:38;;;;;;;2.55;1.30;;;21.70;74.70;;;;;;5049010;28;20025;-69
2023/08/15 04:15:04;;;;;;;1.45;0.90;;;21.70;74.80;;;;;;5037341;28;20026;-68
2023/08/15 04:17:30;;;;;;;1.70;1.23;;;21.60;74.60;;;;;;5048420;28;20040;-69
2023/08/15 04:19:56;;;;;;;1.23;1.13;;;21.60;74.80;;;;;;5049820;28;20447;-69
2023/08/15 04:22:22;;;;;;;1.50;1.40;;;21.50;74.80;;;;;;5051978;28;20067;-69
2023/08/15 04:24:47;;;;;;;2.53;1.30;;;21.50;74.90;;;;;;5049749;28;20033;-62
2023/08/15 04:27:13;;;;;;;2.50;1.48;;;21.50;75.00;;;;;;5053737;28;20041;-63
2023/08/15 04:29:39;;;;;;;5.00;1.67;;;21.50;75.20;;;;;;5048293;28;20260;-63
2023/08/15 04:32:05;;;;;;;1.10;1.00;;;21.40;75.20;;;;;;5051927;28;20028;-63
2023/08/15 04:34:30;;;;;;;1.23;0.93;;;21.40;75.30;;;;;;5051012;28;20102;-63
2023/08/15 04:36:56;;;;;;;2.25;1.42;;;21.40;76.10;;;;;;5054447;28;20031;-63
2023/08/15 04:39:22;;;;;;;1.33;1.17;;;21.30;75.60;;;;;;5057475;28;20041;-62
2023/08/15 04:41:48;;;;;;;3.42;1.27;;;21.30;75.50;;;;;;5049378;28;20041;-63
2023/08/15 04:44:13;;;;;;;1.48;1.15;;;21.30;75.80;;;;;;5051469;28;20098;-62
2023/08/15 04:46:39;;;;;;;3.58;1.40;;;21.20;75.80;;;;;;5043965;28;20088;-63
2023/08/15 04:49:05;;;;;;;2.90;1.23;;;21.20;76.00;;;;;;5050102;28;20032;-61
2023/08/15 04:51:31;;;;;;;1.42;1.23;;;21.20;76.10;;;;;;5046123;28;20047;-62
2023/08/15 04:53:56;;;;;;;3.92;1.40;;;21.20;76.10;;;;;;5046217;28;20087;-62
2023/08/15 04:56:22;;;;;;;5.40;2.38;;;21.20;76.20;;;;;;5060489;28;20028;-62
2023/08/15 04:58:48;;;;;;;3.67;1.92;;;21.10;76.30;;;;;;5052938;28;20056;-62
2023/08/15 05:01:14;;;;;;;4.65;1.42;;;21.10;76.50;;;;;;5053223;28;20025;-62
2023/08/15 05:03:40;;;;;;;2.72;1.48;;;21.10;76.50;;;;;;5043862;28;20033;-62
2023/08/15 05:06:05;;;;;;;3.15;1.42;;;21.10;76.40;;;;;;5040544;28;20041;-68
2023/08/15 05:08:31;;;;;;;2.55;1.65;;;21.10;76.60;;;;;;5045419;28;20060;-69
2023/08/15 05:10:57;;;;;;;2.08;1.40;;;21.10;76.70;;;;;;5048425;28;20558;-69
2023/08/15 05:13:22;;;;;;;1.60;1.20;;;21.10;76.70;;;;;;5050945;28;20021;-69
2023/08/15 05:15:48;;;;;;;2.63;1.30;;;21.10;76.90;;;;;;5046885;28;20045;-69
2023/08/15 05:18:17;;;;;;;1.42;1.33;;;21.10;76.90;;;;;;5061079;28;20025;-69
2023/08/15 05:20:46;;;;;;;3.72;1.45;;;21.10;77.00;;;;;;5056041;28;20541;-70
2023/08/15 05:23:12;;;;;;;2.38;1.00;;;21.10;77.00;;;;;;5047835;28;20053;-70
2023/08/15 05:25:37;;;;;;;3.72;1.65;;;21.10;77.10;;;;;;5051578;28;20065;-63
2023/08/15 05:28:07;;;;;;;4.05;1.88;;;21.10;77.10;;;;;;5055036;28;20033;-63
2023/08/15 05:30:33;;;;;;;0.85;0.82;;;21.00;77.20;;;;;;5043218;28;20432;-70
2023/08/15 05:32:59;;;;;;;1.27;1.13;;;21.10;77.20;;;;;;5045800;28;20020;-70
2023/08/15 05:35:25;;;;;;;1.38;1.08;;;21.10;77.20;;;;;;5049148;28;20542;-69
2023/08/15 05:37:51;;;;;;;1.70;1.10;;;21.10;77.30;;;;;;5051020;28;20024;-70
2023/08/15 05:40:17;;;;;;;1.58;1.05;;;21.10;77.30;;;;;;5051016;28;20075;-66
2023/08/15 05:42:43;;;;;;;11.40;2.85;;;21.10;77.30;;;;;;5048255;28;20636;-64
2023/08/15 05:45:09;;;;;;;1.75;1.02;;;21.20;77.60;;;;;;5046570;28;20032;-64
2023/08/15 05:47:35;;;;;;;2.90;1.42;;;21.20;77.60;;;;;;5048662;28;20135;-63
2023/08/15 05:50:01;;;;;;;1.40;1.20;;;21.20;77.60;;;;;;5047750;28;20116;-63
2023/08/15 05:52:27;;;;;;;2.67;0.90;;;21.20;77.80;;;;;;5057052;28;20033;-63
2023/08/15 05:54:53;;;;;;;2.25;1.80;;;21.20;77.90;;;;;;5053643;28;20017;-63
2023/08/15 05:57:20;;;;;;;2.72;1.40;;;21.20;77.90;;;;;;5050369;28;20041;-63
2023/08/15 05:59:46;;;;;;;2.65;1.10;;;21.30;78.00;;;;;;5032123;28;20060;-63
2023/08/15 06:02:12;;;;;;;2.95;1.40;;;21.30;77.80;;;;;;5048510;28;20029;-63
2023/08/15 06:04:38;;;;;;;2.53;1.20;;;21.40;77.80;;;;;;5046118;28;20079;-63
2023/08/15 06:07:04;;;;;;;9.88;1.98;;;21.50;77.60;;;;;;5049615;28;20029;-63
2023/08/15 06:09:30;;;;;;;1.95;1.23;;;21.50;77.50;;;;;;5045821;28;20113;-63
2023/08/15 06:11:55;;;;;;;3.28;1.40;;;21.50;77.40;;;;;;5044160;28;20037;-63
2023/08/15 06:14:21;;;;;;;7.25;1.73;;;21.60;77.50;;;;;;5053318;28;20025;-63
2023/08/15 06:16:48;;;;;;;6.15;1.98;;;21.50;77.70;;;;;;5051171;28;20041;-63
2023/08/15 06:19:13;;;;;;;1.95;1.52;;;21.50;77.90;;;;;;5050705;28;20024;-63
2023/08/15 06:21:42;;;;;;;0.60;0.60;;;21.40;78.10;;;;;;5045500;28;20469;-61
2023/08/15 06:24:12;;;;;;;2.92;1.33;;;21.50;78.20;;;;;;5046030;28;20021;-62
2023/08/15 06:26:38;;;;;;;1.33;1.17;;;21.50;78.30;;;;;;5032750;28;20426;-62
2023/08/15 06:29:05;;;;;;;3.80;2.08;;;21.40;78.20;;;;;;5035933;28;20040;-61
2023/08/15 06:31:32;;;;;;;3.30;1.60;;;21.40;78.30;;;;;;5035422;28;20040;-61
2023/08/15 06:33:57;;;;;;;1.77;1.40;;;21.50;78.40;;;;;;5036773;28;20814;-61
2023/08/15 06:36:23;;;;;;;4.13;1.65;;;21.50;78.30;;;;;;5050386;28;20108;-60
2023/08/15 06:38:51;;;;;;;2.17;1.52;;;21.50;78.90;;;;;;5045818;28;20025;-61
2023/08/15 06:41:17;;;;;;;3.00;1.42;;;21.50;78.20;;;;;;5053696;28;20037;-61
2023/08/15 06:43:44;;;;;;;3.63;1.17;;;21.60;78.10;;;;;;5040648;28;20041;-66
2023/08/15 06:46:16;;;;;;;2.17;1.10;;;21.60;78.10;;;;;;5044218;28;20480;-66
2023/08/15 06:48:41;;;;;;;;;;;21.70;77.90;;;;;;5042115;28;20021;-66
2023/08/15 06:51:07;;;;;;;2.60;1.40;;;21.80;77.70;;;;;;5051000;28;19974;-66
2023/08/15 06:53:33;;;;;;;3.65;1.60;;;21.80;77.50;;;;;;5045325;28;20029;-66
2023/08/15 06:55:59;;;;;;;2.95;1.48;;;21.70;77.50;;;;;;5046902;28;20025;-67
2023/08/15 06:58:25;;;;;;;2.88;0.98;;;21.70;77.90;;;;;;5042490;28;20456;-65
2023/08/15 07:00:52;;;;;;;5.18;1.70;;;21.70;78.10;;;;;;5041718;28;20128;-66
2023/08/15 07:03:18;;;;;;;2.83;1.92;;;21.80;78.00;;;;;;5040768;28;20098;-66
2023/08/15 07:05:44;;;;;;;2.00;1.25;;;21.90;77.80;;;;;;5046679;28;20033;-65
2023/08/15 07:08:12;;;;;;;4.53;1.73;;;21.90;77.60;;;;;;5045857;28;20024;-65
2023/08/15 07:10:39;;;;;;;3.13;1.95;;;22.00;77.50;;;;;;5046561;28;21085;-71
2023/08/15 07:13:04;;;;;;;5.15;1.77;;;22.10;77.30;;;;;;5039837;28;20033;-70
2023/08/15 07:15:31;;;;;;;2.05;1.50;;;22.10;77.00;;;;;;5049971;28;20116;-66
2023/08/15 07:17:57;;;;;;;1.92;1.13;;;22.20;77.00;;;;;;5048696;28;20037;-66
2023/08/15 07:20:22;;;;;;;10.48;2.88;;;22.10;77.00;;;;;;5049909;28;20511;-65
2023/08/15 07:22:48;;;;;;;3.85;2.20;;;22.20;77.10;;;;;;5048926;28;20040;-67
2023/08/15 07:25:14;;;;;;;2.30;1.38;;;22.20;77.00;;;;;;5048512;28;20033;-69
2023/08/15 07:27:39;;;;;;;1.67;1.05;;;22.30;77.00;;;;;;5053064;28;20115;-65
2023/08/15 07:30:06;;;;;;;7.95;1.42;;;22.40;76.80;;;;;;5034657;28;20087;-64
2023/08/15 07:32:35;;;;;;;2.85;2.35;;;22.60;76.50;;;;;;5051635;28;20032;-64
2023/08/15 07:35:00;;;;;;;2.60;1.67;;;22.70;76.00;;;;;;5049858;28;20465;-64
2023/08/15 07:37:26;;;;;;;2.47;1.48;;;22.60;75.80;;;;;;5047743;28;20025;-65
2023/08/15 07:40:07;;;;;;;6.85;1.98;;;22.60;75.90;;;;;;5043359;28;20396;-64
2023/08/15 07:42:34;;;;;;;5.53;0.93;;;22.70;76.10;;;;;;5038944;28;20556;-65
2023/08/15 07:45:00;;;;;;;1.52;0.77;;;22.70;76.00;;;;;;5032213;28;20033;-61
2023/08/15 07:47:25;;;;;;;5.50;1.52;;;22.80;75.90;;;;;;5038694;28;20033;-64
2023/08/15 07:50:15;;;;;;;2.70;1.25;;;22.90;75.90;;;;;;5041124;28;20033;-64
2023/08/15 07:52:41;;;;;;;2.40;1.13;;;23.00;75.80;;;;;;5050973;28;20056;-63
2023/08/15 07:55:08;;;;;;;3.50;1.00;;;23.00;75.50;;;;;;5047206;28;20526;-63
2023/08/15 07:57:34;;;;;;;2.25;1.42;;;23.10;75.40;;;;;;5048042;28;20033;-62
2023/08/15 08:00:00;;;;;;;2.20;0.88;;;23.20;75.00;;;;;;5047429;28;20068;-62
2023/08/15 08:02:25;;;;;;;3.15;1.35;;;23.30;74.90;;;;;;5046288;28;20068;-63
2023/08/15 08:04:51;;;;;;;1.83;1.02;;;23.30;74.70;;;;;;5049081;28;20128;-62
2023/08/15 08:07:17;;;;;;;1.55;1.17;;;23.30;74.40;;;;;;5034468;28;20435;-64
2023/08/15 08:09:43;;;;;;;4.13;1.27;;;23.40;74.50;;;;;;5034499;28;20072;-65
2023/08/15 08:12:09;;;;;;;3.08;1.50;;;23.40;74.50;;;;;;5040224;28;20163;-64
2023/08/15 08:14:35;;;;;;;2.97;0.80;;;23.40;74.50;;;;;;5045037;28;20531;-65
2023/08/15 08:17:01;;;;;;;0.90;0.80;;;23.30;74.60;;;;;;5045011;28;20084;-66
2023/08/15 08:19:26;;;;;;;3.40;0.88;;;23.30;74.80;;;;;;5044418;28;20129;-67
2023/08/15 08:21:52;;;;;;;1.35;0.77;;;23.40;74.80;;;;;;5048235;28;20085;-64
2023/08/15 08:24:18;;;;;;;3.53;1.13;;;23.40;74.60;;;;;;5046464;28;20496;-64
2023/08/15 08:26:44;;;;;;;0.82;0.80;;;23.60;74.60;;;;;;5034697;28;20029;-61
2023/08/15 08:29:11;;;;;;;3.55;1.35;;;23.70;74.30;;;;;;5026516;28;20089;-62
2023/08/15 08:31:39;;;;;;;2.70;1.55;;;23.80;73.70;;;;;;5032378;28;20029;-67
2023/08/15 08:34:05;;;;;;;1.60;1.10;;;23.80;73.50;;;;;;5042523;28;20033;-67
2023/08/15 08:36:31;;;;;;;0.80;0.70;;;23.90;73.60;;;;;;5033659;28;20079;-68
2023/08/15 08:38:57;;;;;;;4.32;0.95;;;24.00;73.40;;;;;;5031115;28;20041;-67
2023/08/15 08:41:23;;;;;;;4.00;1.40;;;24.20;72.70;;;;;;5034101;28;20366;-68
2023/08/15 08:43:49;;;;;;;3.45;1.40;;;24.20;72.40;;;;;;5043883;28;20095;-62
2023/08/15 08:46:15;;;;;;;1.27;1.17;;;24.20;72.30;;;;;;5034332;28;20027;-62
2023/08/15 08:48:42;;;;;;;1.73;0.93;;;24.30;72.40;;;;;;5041680;28;20017;-62
2023/08/15 08:51:08;;;;;;;1.75;0.93;;;24.40;72.20;;;;;;5041719;28;20518;-62
2023/08/15 08:53:34;;;;;;;1.95;1.25;;;24.50;71.90;;;;;;5048406;28;20032;-61
2023/08/15 08:56:01;;;;;;;1.67;1.30;;;24.40;70.60;;;;;;5057759;28;20037;-62
2023/08/15 08:58:30;;;;;;;2.05;1.25;;;24.30;71.10;;;;;;5039767;28;20052;-63
2023/08/15 09:01:01;;;;;;;3.13;1.20;;;24.30;71.50;;;;;;5037672;28;21015;-63
2023/08/15 09:03:27;;;;;;;2.90;1.30;;;24.20;71.20;;;;;;5042831;28;20027;-64
2023/08/15 09:05:53;;;;;;;1.48;1.10;;;24.20;71.50;;;;;;5044837;28;20034;-63
2023/08/15 09:08:19;;;;;;;2.33;1.00;;;24.20;71.40;;;;;;5043247;28;20106;-64
2023/08/15 09:10:45;;;;;;;2.30;1.10;;;24.30;71.50;;;;;;5041934;28;20033;-63
2023/08/15 09:13:10;;;;;;;1.50;0.95;;;24.20;71.10;;;;;;5044976;28;20026;-64
2023/08/15 09:15:36;;;;;;;3.13;1.25;;;24.10;71.30;;;;;;5035105;28;20075;-64
2023/08/15 09:18:07;;;;;;;2.13;0.90;;;24.10;71.60;;;;;;5032627;28;20109;-63
2023/08/15 09:20:44;;;;;;;3.53;0.85;;;24.10;71.70;;;;;;5044090;28;20064;-63
2023/08/15 09:23:09;;;;;;;2.13;1.30;;;24.10;71.60;;;;;;5040256;28;20424;-64
2023/08/15 09:25:36;;;;;;;0.82;0.82;;;24.10;71.70;;;;;;5051295;28;20037;-64
2023/08/15 09:28:05;;;;;;;2.10;1.38;;;24.20;71.30;;;;;;5041193;28;20508;-64
2023/08/15 09:30:31;;;;;;;3.13;1.30;;;24.40;71.10;;;;;;5046918;28;20036;-64
2023/08/15 09:32:56;;;;;;;3.00;1.70;;;24.50;71.20;;;;;;5048807;28;20029;-64
2023/08/15 09:35:22;;;;;;;1.60;0.90;;;24.40;70.00;;;;;;5034103;28;20036;-64
2023/08/15 09:37:50;;;;;;;2.10;1.35;;;24.40;70.30;;;;;;5045427;28;20068;-64
2023/08/15 09:40:19;;;;;;;1.08;0.90;;;24.30;69.70;;;;;;5042508;28;20032;-64
2023/08/15 09:42:45;;;;;;;1.35;0.90;;;24.30;70.00;;;;;;5045442;28;20445;-63
2023/08/15 09:45:12;;;;;;;0.70;0.57;;;24.40;70.00;;;;;;5035226;28;20396;-63
2023/08/15 09:47:39;;;;;;;1.35;0.90;;;24.50;70.00;;;;;;5049431;28;20157;-63
2023/08/15 09:50:09;;;;;;;3.83;1.20;;;24.60;69.50;;;;;;5041783;28;20389;-66
2023/08/15 09:52:40;;;;;;;1.60;1.50;;;24.60;69.40;;;;;;5057469;28;20104;-64
2023/08/15 09:55:12;;;;;;;3.00;1.02;;;24.60;69.70;;;;;;5049079;28;20029;-63
2023/08/15 09:57:39;;;;;;;1.55;0.95;;;24.70;69.90;;;;;;5054891;28;20046;-63
2023/08/15 10:00:09;;;;;;;1.83;1.10;;;24.80;69.90;;;;;;5032757;28;20500;-63
2023/08/15 10:02:43;;;;;;;2.63;1.15;;;24.90;69.60;;;;;;5047654;28;20483;-64
2023/08/15 10:05:11;;;;;;;3.22;1.10;;;25.00;68.90;;;;;;5033319;28;20025;-64
2023/08/15 10:07:38;;;;;;;6.60;1.33;;;25.00;69.10;;;;;;5031771;28;20033;-63
2023/08/15 10:10:04;;;;;;;3.35;1.33;;;25.00;69.20;;;;;;5033019;28;20063;-66
2023/08/15 10:12:32;;;;;;;2.30;1.10;;;25.00;69.30;;;;;;5043748;28;20033;-64
2023/08/15 10:14:58;;;;;;;1.13;1.02;;;25.00;69.20;;;;;;5042738;28;20376;-66
2023/08/15 10:17:26;;;;;;;2.42;2.10;;;25.00;69.20;;;;;;5050232;28;20049;-63
2023/08/15 10:19:54;;;;;;;1.60;1.25;;;25.10;69.30;;;;;;5056745;28;20498;-66
2023/08/15 10:22:19;;;;;;;2.95;1.60;;;25.10;68.80;;;;;;5038907;28;20031;-66
2023/08/15 10:24:46;;;;;;;1.70;1.52;;;25.00;68.30;;;;;;5043867;28;20479;-66
2023/08/15 10:27:15;;;;;;;2.05;1.20;;;24.90;68.70;;;;;;5036043;28;20427;-64
2023/08/15 10:30:03;;;;;;;3.83;1.38;;;24.90;68.80;;;;;;5044857;28;20029;-63
2023/08/15 10:32:33;;;;;;;2.22;1.90;;;24.90;69.10;;;;;;5032111;28;20036;-64
2023/08/15 10:35:01;;;;;;;2.80;1.70;;;24.90;69.00;;;;;;5043492;28;20074;-64
2023/08/15 10:37:34;;;;;;;5.32;1.55;;;24.90;69.00;;;;;;5033364;28;20504;-64
2023/08/15 10:40:08;;;;;;;1.30;1.20;;;25.00;68.80;;;;;;5049364;28;20052;-66
2023/08/15 10:43:01;;;;;;;2.30;2.00;;;25.00;69.20;;;;;;5049387;28;20036;-63
2023/08/15 10:45:30;;;;;;;6.50;1.83;;;25.10;68.50;;;;;;5040174;28;20511;-64
2023/08/15 10:47:56;;;;;;;2.75;1.95;;;25.20;68.20;;;;;;5032791;28;20079;-69
2023/08/15 10:50:24;;;;;;;3.70;2.03;;;25.30;68.20;;;;;;5052799;28;20068;-69
2023/08/15 10:53:01;;;;;;;2.45;1.75;;;25.30;68.10;;;;;;5053502;28;20150;-63
2023/08/15 10:55:29;;;;;;;2.90;2.25;;;25.30;68.00;;;;;;5048049;28;20021;-63
2023/08/15 10:57:56;;;;;;;4.45;1.50;;;25.30;67.90;;;;;;5045540;28;20070;-69
2023/08/15 11:00:23;;;;;;;1.60;1.38;;;25.40;68.10;;;;;;5054592;28;20032;-69
2023/08/15 11:02:50;;;;;;;3.72;1.85;;;25.60;68.10;;;;;;5046849;28;20103;-63
2023/08/15 11:05:18;;;;;;;1.48;1.20;;;25.80;67.90;;;;;;5045960;28;20067;-63
2023/08/15 11:07:43;;;;;;;1.17;1.08;;;26.00;67.50;;;;;;5043161;28;20443;-63
2023/08/15 11:10:11;;;;;;;2.03;1.20;;;26.20;66.80;;;;;;5055554;28;20018;-64
2023/08/15 11:12:36;;;;;;;3.65;1.85;;;26.40;66.30;;;;;;5049758;28;20028;-64
2023/08/15 11:15:02;;;;;;;1.90;1.38;;;26.50;65.00;;;;;;5048262;28;20032;-64
2023/08/15 11:17:28;;;;;;;1.70;1.30;;;26.60;65.20;;;;;;5043035;28;20048;-63
2023/08/15 11:19:54;;;;;;;1.60;1.40;;;26.80;64.50;;;;;;5047371;28;20468;-69
2023/08/15 11:22:20;;;;;;;1.58;1.42;;;27.00;64.70;;;;;;5051107;28;20518;-69
2023/08/15 11:24:52;;;;;;;2.20;1.40;;;27.40;63.20;;;;;;5050480;28;20040;-69
2023/08/15 11:27:17;;;;;;;;;;;27.50;62.10;;;;;;5057724;28;20502;-63
2023/08/15 11:29:43;;;;;;;2.50;1.63;;;27.70;61.70;;;;;;5049007;28;19924;-63
2023/08/15 11:32:09;;;;;;;1.63;1.52;;;27.60;61.80;;;;;;5039882;28;20022;-63
2023/08/15 11:34:42;;;;;;;2.17;1.83;;;27.70;61.90;;;;;;5051089;28;20112;-69
2023/08/15 11:37:09;;;;;;;1.08;1.08;;;27.90;61.00;;;;;;5056266;28;20039;-69
2023/08/15 11:39:35;;;;;;;6.20;1.40;;;27.90;60.80;;;;;;5053840;28;20159;-69
2023/08/15 11:42:00;;;;;;;2.50;1.77;;;27.80;61.10;;;;;;5057008;28;20127;-69
2023/08/15 11:44:26;;;;;;;3.17;2.08;;;27.70;61.10;;;;;;5047239;28;20060;-69
2023/08/15 11:46:52;;;;;;;2.95;1.98;;;27.50;60.60;;;;;;5057739;28;20415;-69
2023/08/15 11:49:18;;;;;;;2.47;1.73;;;27.60;61.00;;;;;;5049356;28;20325;-69
2023/08/15 11:51:44;;;;;;;1.10;1.00;;;27.70;61.50;;;;;;5051012;28;20017;-69
2023/08/15 11:54:10;;;;;;;2.75;1.35;;;27.70;61.80;;;;;;5056507;28;20028;-69
2023/08/15 11:56:49;;;;;;;3.17;1.58;;;27.60;61.80;;;;;;5047208;28;20044;-69
2023/08/15 11:59:19;;;;;;;3.40;1.58;;;27.50;61.80;;;;;;5048548;28;20037;-69
2023/08/15 12:01:46;;;;;;;4.53;2.35;;;27.20;62.10;;;;;;5047280;28;20024;-69
2023/08/15 12:04:13;;;;;;;4.57;1.10;;;27.00;62.20;;;;;;5052341;28;20349;-69
2023/08/15 12:06:39;;;;;;;1.48;1.33;;;26.90;62.70;;;;;;5049533;28;20028;-69
2023/08/15 12:09:08;;;;;;;4.93;1.85;;;27.00;63.10;;;;;;5044435;28;20025;-69
2023/08/15 12:11:34;;;;;;;1.50;1.40;;;27.10;61.80;;;;;;5043803;28;20037;-69
2023/08/15 12:14:00;;;;;;;1.30;1.20;;;27.20;62.20;;;;;;5041481;28;20075;-69
2023/08/15 12:16:26;;;;;;;1.67;1.52;;;27.50;61.60;;;;;;5041451;28;20042;-69
2023/08/15 12:18:52;;;;;;;3.00;1.92;;;27.80;61.20;;;;;;5050963;28;20036;-69
2023/08/15 12:21:18;;;;;;;6.13;1.83;;;28.10;60.50;;;;;;5050542;28;20028;-64
2023/08/15 12:23:44;;;;;;;3.53;1.75;;;28.20;59.90;;;;;;5045637;28;20032;-64
2023/08/15 12:26:10;;;;;;;1.88;1.50;;;28.20;60.20;;;;;;5053739;28;20420;-64
2023/08/15 12:28:36;;;;;;;1.80;1.55;;;28.40;60.20;;;;;;5039777;28;20028;-65
2023/08/15 12:31:01;;;;;;;3.38;1.35;;;28.80;60.00;;;;;;5046044;28;20551;-64
2023/08/15 12:33:32;;;;;;;3.58;1.65;;;29.20;59.30;;;;;;5054461;28;20021;-70
2023/08/15 12:35:58;;;;;;;3.20;2.08;;;29.20;58.50;;;;;;5050397;28;20112;-69
2023/08/15 12:38:23;;;;;;;1.30;1.20;;;29.20;58.50;;;;;;5060803;28;20108;-69
2023/08/15 12:40:49;;;;;;;2.15;1.55;;;29.20;59.00;;;;;;5057018;28;20476;-69
2023/08/15 12:43:15;;;;;;;1.92;1.58;;;29.20;58.70;;;;;;5057266;28;20032;-64
2023/08/15 12:45:41;;;;;;;2.58;1.52;;;29.10;58.90;;;;;;5046143;28;20025;-64
2023/08/15 12:48:07;;;;;;;2.53;1.60;;;28.80;58.10;;;;;;5053303;28;20033;-64